sensor_id;sensor_type;location;lat;lon;timestamp;pressure;altitude;pressure_sealevel;temperature;humidity
23261;BME280;11799;47.740;-3.390;2023-08-07T00:01:13;102293.34;;;14.63;100.00
23261;BME280;11799;47.740;-3.390;2023-08-07T00:03:38;102291.53;;;14.63;100.00
23261;BME280;11799;47.740;-3.390;2023-08-07T00:06:04;102288.34;;;14.58;100.00
23261;BME280;11799;47.740;-3.390;2023-08-07T00:08:29;102281.97;;;14.61;100.00
23261;BME280;11799;47.740;-3.390;2023-08-07T00:11:09;102287.28;;;14.61;100.00
23261;BME280;11799;47.740;-3.390;2023-08-07T00:13:35;102293.03;;;14.54;100.00
23261;BME280;11799;47.740;-3.390;2023-08-07T00:16:01;102281.66;;;14.52;100.00
23261;BME280;11799;47.740;-3.390;2023-08-07T00:18:28;102280.72;;;14.53;100.00
23261;BME280;11799;47.740;-3.390;2023-08-07T00:20:54;102282.50;;;14.53;100.00
23261;BME280;11799;47.740;-3.390;2023-08-07T00:23:19;102282.41;;;14.54;100.00
23261;BME280;11799;47.740;-3.390;2023-08-07T00:25:45;102285.19;;;14.53;100.00
23261;BME280;11799;47.740;-3.390;2023-08-07T00:28:10;102284.53;;;14.49;100.00
23261;BME280;11799;47.740;-3.390;2023-08-07T00:30:36;102282.09;;;14.46;100.00
23261;BME280;11799;47.740;-3.390;2023-08-07T00:33:01;102288.50;;;14.44;100.00
23261;BME280;11799;47.740;-3.390;2023-08-07T00:35:28;102284.34;;;14.40;100.00
23261;BME280;11799;47.740;-3.390;2023-08-07T00:37:53;102285.41;;;14.37;100.00
23261;BME280;11799;47.740;-3.390;2023-08-07T00:40:19;102283.72;;;14.36;100.00
23261;BME280;11799;47.740;-3.390;2023-08-07T00:42:44;102288.81;;;14.39;100.00
23261;BME280;11799;47.740;-3.390;2023-08-07T00:45:10;102295.19;;;14.37;100.00
23261;BME280;11799;47.740;-3.390;2023-08-07T00:47:36;102292.75;;;14.34;100.00
23261;BME280;11799;47.740;-3.390;2023-08-07T00:50:03;102283.19;;;14.31;100.00
23261;BME280;11799;47.740;-3.390;2023-08-07T00:52:30;102279.47;;;14.34;100.00
23261;BME280;11799;47.740;-3.390;2023-08-07T00:54:56;102280.09;;;14.37;100.00
23261;BME280;11799;47.740;-3.390;2023-08-07T00:57:22;102272.22;;;14.36;100.00
23261;BME280;11799;47.740;-3.390;2023-08-07T00:59:50;102271.47;;;14.34;100.00
23261;BME280;11799;47.740;-3.390;2023-08-07T01:02:16;102272.56;;;14.31;100.00
23261;BME280;11799;47.740;-3.390;2023-08-07T01:04:42;102273.50;;;14.30;100.00
23261;BME280;11799;47.740;-3.390;2023-08-07T01:07:07;102275.22;;;14.31;100.00
23261;BME280;11799;47.740;-3.390;2023-08-07T01:09:33;102274.47;;;14.29;100.00
23261;BME280;11799;47.740;-3.390;2023-08-07T01:14:53;102282.53;;;14.28;100.00
23261;BME280;11799;47.740;-3.390;2023-08-07T01:17:22;102276.78;;;14.34;100.00
23261;BME280;11799;47.740;-3.390;2023-08-07T01:19:51;102285.31;;;14.26;100.00
23261;BME280;11799;47.740;-3.390;2023-08-07T01:22:18;102286.47;;;14.22;100.00
23261;BME280;11799;47.740;-3.390;2023-08-07T01:24:46;102280.63;;;14.17;100.00
23261;BME280;11799;47.740;-3.390;2023-08-07T01:29:52;102276.91;;;14.07;100.00
23261;BME280;11799;47.740;-3.390;2023-08-07T01:32:33;102272.88;;;14.01;100.00
23261;BME280;11799;47.740;-3.390;2023-08-07T01:35:01;102277.53;;;13.98;100.00
23261;BME280;11799;47.740;-3.390;2023-08-07T01:37:30;102277.44;;;13.99;100.00
23261;BME280;11799;47.740;-3.390;2023-08-07T01:39:58;102284.66;;;13.97;100.00
23261;BME280;11799;47.740;-3.390;2023-08-07T01:42:26;102287.75;;;14.04;100.00
23261;BME280;11799;47.740;-3.390;2023-08-07T01:44:52;102281.38;;;14.06;100.00
23261;BME280;11799;47.740;-3.390;2023-08-07T01:47:18;102268.63;;;13.99;100.00
23261;BME280;11799;47.740;-3.390;2023-08-07T01:49:44;102270.53;;;13.97;100.00
23261;BME280;11799;47.740;-3.390;2023-08-07T01:52:09;102273.72;;;14.02;100.00
23261;BME280;11799;47.740;-3.390;2023-08-07T01:54:36;102284.34;;;13.89;100.00
23261;BME280;11799;47.740;-3.390;2023-08-07T01:57:02;102285.53;;;13.85;100.00
23261;BME280;11799;47.740;-3.390;2023-08-07T01:59:29;102279.47;;;13.83;100.00
23261;BME280;11799;47.740;-3.390;2023-08-07T02:01:54;102284.56;;;13.86;100.00
23261;BME280;11799;47.740;-3.390;2023-08-07T02:04:20;102285.75;;;13.82;100.00
23261;BME280;11799;47.740;-3.390;2023-08-07T02:06:46;102292.53;;;13.73;100.00
23261;BME280;11799;47.740;-3.390;2023-08-07T02:09:11;102297.72;;;13.75;100.00
23261;BME280;11799;47.740;-3.390;2023-08-07T02:11:37;102301.25;;;13.75;100.00
23261;BME280;11799;47.740;-3.390;2023-08-07T02:14:02;102300.78;;;13.69;100.00
23261;BME280;11799;47.740;-3.390;2023-08-07T02:16:28;102293.88;;;13.66;100.00
23261;BME280;11799;47.740;-3.390;2023-08-07T02:18:53;102289.09;;;13.59;100.00
23261;BME280;11799;47.740;-3.390;2023-08-07T02:21:19;102285.28;;;13.63;100.00
23261;BME280;11799;47.740;-3.390;2023-08-07T02:23:44;102291.34;;;13.65;100.00
23261;BME280;11799;47.740;-3.390;2023-08-07T02:26:10;102287.84;;;13.64;100.00
23261;BME280;11799;47.740;-3.390;2023-08-07T02:28:35;102294.19;;;13.62;100.00
23261;BME280;11799;47.740;-3.390;2023-08-07T02:31:01;102285.38;;;13.61;100.00
23261;BME280;11799;47.740;-3.390;2023-08-07T02:33:27;102294.50;;;13.57;100.00
23261;BME280;11799;47.740;-3.390;2023-08-07T02:35:55;102289.59;;;13.51;100.00
23261;BME280;11799;47.740;-3.390;2023-08-07T02:38:21;102284.69;;;13.45;100.00
23261;BME280;11799;47.740;-3.390;2023-08-07T02:40:46;102288.34;;;13.57;100.00
23261;BME280;11799;47.740;-3.390;2023-08-07T02:43:12;102288.44;;;13.55;100.00
23261;BME280;11799;47.740;-3.390;2023-08-07T02:45:37;102288.66;;;13.52;100.00
23261;BME280;11799;47.740;-3.390;2023-08-07T02:48:03;102287.09;;;13.62;100.00
23261;BME280;11799;47.740;-3.390;2023-08-07T02:50:29;102293.34;;;13.61;100.00
23261;BME280;11799;47.740;-3.390;2023-08-07T02:53:01;102280.38;;;13.57;100.00
23261;BME280;11799;47.740;-3.390;2023-08-07T02:55:27;102282.72;;;13.61;100.00
23261;BME280;11799;47.740;-3.390;2023-08-07T02:57:52;102285.06;;;13.66;100.00
23261;BME280;11799;47.740;-3.390;2023-08-07T03:00:18;102280.63;;;13.66;100.00
23261;BME280;11799;47.740;-3.390;2023-08-07T03:02:44;102288.28;;;13.71;100.00
23261;BME280;11799;47.740;-3.390;2023-08-07T03:05:09;102297.19;;;13.70;100.00
23261;BME280;11799;47.740;-3.390;2023-08-07T03:07:35;102292.41;;;13.75;100.00
23261;BME280;11799;47.740;-3.390;2023-08-07T03:10:00;102299.44;;;13.76;100.00
23261;BME280;11799;47.740;-3.390;2023-08-07T03:12:26;102293.81;;;13.80;100.00
23261;BME280;11799;47.740;-3.390;2023-08-07T03:14:52;102294.88;;;13.78;100.00
23261;BME280;11799;47.740;-3.390;2023-08-07T03:17:17;102292.53;;;13.73;100.00
23261;BME280;11799;47.740;-3.390;2023-08-07T03:19:43;102291.88;;;13.70;100.00
23261;BME280;11799;47.740;-3.390;2023-08-07T03:22:09;102289.97;;;13.72;100.00
23261;BME280;11799;47.740;-3.390;2023-08-07T03:24:35;102295.28;;;13.72;100.00
23261;BME280;11799;47.740;-3.390;2023-08-07T03:27:00;102296.97;;;13.73;100.00
23261;BME280;11799;47.740;-3.390;2023-08-07T03:29:26;102294.13;;;13.76;100.00
23261;BME280;11799;47.740;-3.390;2023-08-07T03:31:52;102286.16;;;13.76;100.00
23261;BME280;11799;47.740;-3.390;2023-08-07T03:34:18;102291.56;;;13.74;100.00
23261;BME280;11799;47.740;-3.390;2023-08-07T03:36:44;102275.75;;;13.73;100.00
23261;BME280;11799;47.740;-3.390;2023-08-07T03:39:10;102270.34;;;13.74;100.00
23261;BME280;11799;47.740;-3.390;2023-08-07T03:41:38;102266.72;;;13.75;100.00
23261;BME280;11799;47.740;-3.390;2023-08-07T03:44:04;102265.66;;;13.78;100.00
23261;BME280;11799;47.740;-3.390;2023-08-07T03:46:30;102262.25;;;13.76;100.00
23261;BME280;11799;47.740;-3.390;2023-08-07T03:48:56;102267.38;;;13.79;100.00
23261;BME280;11799;47.740;-3.390;2023-08-07T03:51:23;102262.06;;;13.79;100.00
23261;BME280;11799;47.740;-3.390;2023-08-07T03:53:52;102261.94;;;13.80;100.00
23261;BME280;11799;47.740;-3.390;2023-08-07T03:56:17;102258.44;;;13.80;100.00
23261;BME280;11799;47.740;-3.390;2023-08-07T03:58:43;102261.72;;;13.71;100.00
23261;BME280;11799;47.740;-3.390;2023-08-07T04:01:09;102253.00;;;13.69;100.00
23261;BME280;11799;47.740;-3.390;2023-08-07T04:03:37;102263.22;;;13.75;100.00
23261;BME280;11799;47.740;-3.390;2023-08-07T04:06:04;102257.81;;;13.76;100.00
23261;BME280;11799;47.740;-3.390;2023-08-07T04:08:31;102256.84;;;13.77;100.00
23261;BME280;11799;47.740;-3.390;2023-08-07T04:11:01;102260.78;;;13.72;100.00
23261;BME280;11799;47.740;-3.390;2023-08-07T04:13:28;102259.59;;;13.76;100.00
23261;BME280;11799;47.740;-3.390;2023-08-07T04:15:54;102254.91;;;13.67;100.00
23261;BME280;11799;47.740;-3.390;2023-08-07T04:18:20;102260.97;;;13.69;100.00
23261;BME280;11799;47.740;-3.390;2023-08-07T04:20:50;102259.91;;;13.71;100.00
23261;BME280;11799;47.740;-3.390;2023-08-07T04:23:16;102264.38;;;13.71;100.00
23261;BME280;11799;47.740;-3.390;2023-08-07T04:25:42;102256.28;;;13.60;100.00
23261;BME280;11799;47.740;-3.390;2023-08-07T04:28:07;102255.00;;;13.52;100.00
23261;BME280;11799;47.740;-3.390;2023-08-07T04:30:33;102259.25;;;13.55;100.00
23261;BME280;11799;47.740;-3.390;2023-08-07T04:32:59;102259.25;;;13.55;100.00
23261;BME280;11799;47.740;-3.390;2023-08-07T04:35:24;102262.88;;;13.54;100.00
23261;BME280;11799;47.740;-3.390;2023-08-07T04:37:50;102260.41;;;13.51;100.00
23261;BME280;11799;47.740;-3.390;2023-08-07T04:40:15;102268.28;;;13.52;100.00
23261;BME280;11799;47.740;-3.390;2023-08-07T04:42:41;102266.16;;;13.58;100.00
23261;BME280;11799;47.740;-3.390;2023-08-07T04:45:07;102273.72;;;13.64;100.00
23261;BME280;11799;47.740;-3.390;2023-08-07T04:47:32;102280.94;;;13.62;100.00
23261;BME280;11799;47.740;-3.390;2023-08-07T04:49:58;102283.69;;;13.60;100.00
23261;BME280;11799;47.740;-3.390;2023-08-07T04:52:23;102281.75;;;13.49;100.00
23261;BME280;11799;47.740;-3.390;2023-08-07T04:54:49;102288.75;;;13.50;100.00
23261;BME280;11799;47.740;-3.390;2023-08-07T04:57:14;102276.75;;;13.45;100.00
23261;BME280;11799;47.740;-3.390;2023-08-07T04:59:40;102282.91;;;13.45;100.00
23261;BME280;11799;47.740;-3.390;2023-08-07T05:02:05;102285.56;;;13.45;100.00
23261;BME280;11799;47.740;-3.390;2023-08-07T05:04:31;102284.81;;;13.43;100.00
23261;BME280;11799;47.740;-3.390;2023-08-07T05:06:57;102283.75;;;13.46;100.00
23261;BME280;11799;47.740;-3.390;2023-08-07T05:09:22;102274.41;;;13.40;100.00
23261;BME280;11799;47.740;-3.390;2023-08-07T05:11:48;102280.34;;;13.44;100.00
23261;BME280;11799;47.740;-3.390;2023-08-07T05:14:13;102274.41;;;13.40;100.00
23261;BME280;11799;47.740;-3.390;2023-08-07T05:16:39;102274.50;;;13.39;100.00
23261;BME280;11799;47.740;-3.390;2023-08-07T05:19:04;102279.81;;;13.39;100.00
23261;BME280;11799;47.740;-3.390;2023-08-07T05:21:30;102278.09;;;13.38;100.00
23261;BME280;11799;47.740;-3.390;2023-08-07T05:23:56;102281.16;;;13.32;100.00
23261;BME280;11799;47.740;-3.390;2023-08-07T05:26:21;102272.78;;;13.25;100.00
23261;BME280;11799;47.740;-3.390;2023-08-07T05:28:47;102290.81;;;13.33;100.00
23261;BME280;11799;47.740;-3.390;2023-08-07T05:31:13;102275.66;;;13.35;100.00
23261;BME280;11799;47.740;-3.390;2023-08-07T05:33:38;102281.38;;;13.29;100.00
23261;BME280;11799;47.740;-3.390;2023-08-07T05:36:04;102285.63;;;13.31;100.00
23261;BME280;11799;47.740;-3.390;2023-08-07T05:38:31;102274.50;;;13.39;100.00
23261;BME280;11799;47.740;-3.390;2023-08-07T05:40:57;102280.66;;;13.39;100.00
23261;BME280;11799;47.740;-3.390;2023-08-07T05:43:23;102276.28;;;13.38;100.00
23261;BME280;11799;47.740;-3.390;2023-08-07T05:45:48;102282.34;;;13.40;100.00
23261;BME280;11799;47.740;-3.390;2023-08-07T05:48:15;102281.41;;;13.41;100.00
23261;BME280;11799;47.740;-3.390;2023-08-07T05:50:42;102271.00;;;13.38;100.00
23261;BME280;11799;47.740;-3.390;2023-08-07T05:53:08;102281.41;;;13.41;100.00
23261;BME280;11799;47.740;-3.390;2023-08-07T05:55:34;102284.69;;;13.45;100.00
23261;BME280;11799;47.740;-3.390;2023-08-07T05:58:00;102287.97;;;13.36;100.00
23261;BME280;11799;47.740;-3.390;2023-08-07T06:00:25;102294.97;;;13.37;100.00
23261;BME280;11799;47.740;-3.390;2023-08-07T06:02:51;102286.50;;;13.44;100.00
23261;BME280;11799;47.740;-3.390;2023-08-07T06:05:16;102284.59;;;13.46;100.00
23261;BME280;11799;47.740;-3.390;2023-08-07T06:07:42;102282.81;;;13.47;100.00
23261;BME280;11799;47.740;-3.390;2023-08-07T06:10:08;102288.56;;;13.53;100.00
23261;BME280;11799;47.740;-3.390;2023-08-07T06:12:33;102288.56;;;13.53;100.00
23261;BME280;11799;47.740;-3.390;2023-08-07T06:14:59;102296.41;;;13.55;100.00
23261;BME280;11799;47.740;-3.390;2023-08-07T06:17:25;102299.06;;;13.55;100.00
23261;BME280;11799;47.740;-3.390;2023-08-07T06:19:50;102288.84;;;13.49;100.00
23261;BME280;11799;47.740;-3.390;2023-08-07T06:22:16;102310.66;;;13.67;100.00
23261;BME280;11799;47.740;-3.390;2023-08-07T06:24:41;102303.34;;;13.70;100.00
23261;BME280;11799;47.740;-3.390;2023-08-07T06:27:07;102311.41;;;13.69;100.00
23261;BME280;11799;47.740;-3.390;2023-08-07T06:29:32;102311.84;;;13.75;100.00
23261;BME280;11799;47.740;-3.390;2023-08-07T06:31:58;102320.25;;;13.82;100.00
23261;BME280;11799;47.740;-3.390;2023-08-07T06:34:23;102324.06;;;13.78;100.00
23261;BME280;11799;47.740;-3.390;2023-08-07T06:36:49;102327.28;;;13.83;100.00
23261;BME280;11799;47.740;-3.390;2023-08-07T06:39:15;102314.75;;;13.85;100.00
23261;BME280;11799;47.740;-3.390;2023-08-07T06:41:40;102326.22;;;13.85;100.00
23261;BME280;11799;47.740;-3.390;2023-08-07T06:44:07;102331.41;;;13.87;100.00
23261;BME280;11799;47.740;-3.390;2023-08-07T06:46:32;102336.50;;;13.90;100.00
23261;BME280;11799;47.740;-3.390;2023-08-07T06:48:58;102334.59;;;13.79;100.00
23261;BME280;11799;47.740;-3.390;2023-08-07T06:51:24;102329.91;;;13.70;100.00
23261;BME280;11799;47.740;-3.390;2023-08-07T06:53:49;102323.53;;;13.73;100.00
23261;BME280;11799;47.740;-3.390;2023-08-07T06:56:15;102321.84;;;13.84;100.00
23261;BME280;11799;47.740;-3.390;2023-08-07T06:58:40;102329.81;;;13.97;100.00
23261;BME280;11799;47.740;-3.390;2023-08-07T07:01:06;102324.41;;;13.99;100.00
23261;BME280;11799;47.740;-3.390;2023-08-07T07:03:31;102326.63;;;14.05;100.00
23261;BME280;11799;47.740;-3.390;2023-08-07T07:05:57;102325.38;;;14.10;100.00
23261;BME280;11799;47.740;-3.390;2023-08-07T07:08:22;102330.38;;;14.15;100.00
23261;BME280;11799;47.740;-3.390;2023-08-07T07:10:48;102325.91;;;14.15;100.00
23261;BME280;11799;47.740;-3.390;2023-08-07T07:13:14;102325.16;;;14.13;100.00
23261;BME280;11799;47.740;-3.390;2023-08-07T07:15:40;102320.91;;;14.11;100.00
23261;BME280;11799;47.740;-3.390;2023-08-07T07:18:05;102331.31;;;14.14;100.00
23261;BME280;11799;47.740;-3.390;2023-08-07T07:20:31;102326.22;;;14.11;100.00
23261;BME280;11799;47.740;-3.390;2023-08-07T07:22:57;102330.69;;;14.10;100.00
23261;BME280;11799;47.740;-3.390;2023-08-07T07:25:22;102331.13;;;14.17;100.00
23261;BME280;11799;47.740;-3.390;2023-08-07T07:27:48;102333.66;;;14.18;100.00
23261;BME280;11799;47.740;-3.390;2023-08-07T07:30:13;102333.34;;;14.23;100.00
23261;BME280;11799;47.740;-3.390;2023-08-07T07:32:39;102328.34;;;14.31;100.00
23261;BME280;11799;47.740;-3.390;2023-08-07T07:35:05;102322.19;;;14.31;100.00
23261;BME280;11799;47.740;-3.390;2023-08-07T07:37:31;102333.56;;;14.33;100.00
23261;BME280;11799;47.740;-3.390;2023-08-07T07:39:57;102339.00;;;14.44;100.00
23261;BME280;11799;47.740;-3.390;2023-08-07T07:42:22;102337.72;;;14.49;100.00
23261;BME280;11799;47.740;-3.390;2023-08-07T07:44:48;102349.81;;;14.53;100.00
23261;BME280;11799;47.740;-3.390;2023-08-07T07:47:13;102348.53;;;14.59;100.00
23261;BME280;11799;47.740;-3.390;2023-08-07T07:49:39;102356.53;;;14.59;100.00
23261;BME280;11799;47.740;-3.390;2023-08-07T07:52:05;102345.78;;;14.61;100.00
23261;BME280;11799;47.740;-3.390;2023-08-07T07:54:31;102349.91;;;14.65;100.00
23261;BME280;11799;47.740;-3.390;2023-08-07T07:56:57;102347.16;;;14.66;100.00
23261;BME280;11799;47.740;-3.390;2023-08-07T07:59:22;102342.25;;;14.73;100.00
23261;BME280;11799;47.740;-3.390;2023-08-07T08:01:48;102342.78;;;14.78;100.00
23261;BME280;11799;47.740;-3.390;2023-08-07T08:04:14;102344.69;;;14.76;100.00
23261;BME280;11799;47.740;-3.390;2023-08-07T08:06:40;102338.91;;;14.95;100.00
23261;BME280;11799;47.740;-3.390;2023-08-07T08:09:06;102343.84;;;15.12;100.00
23261;BME280;11799;47.740;-3.390;2023-08-07T08:11:34;102344.78;;;15.11;100.00
23261;BME280;11799;47.740;-3.390;2023-08-07T08:13:59;102337.56;;;15.13;100.00
23261;BME280;11799;47.740;-3.390;2023-08-07T08:16:25;102341.25;;;15.23;100.00
23261;BME280;11799;47.740;-3.390;2023-08-07T08:18:51;102344.81;;;15.35;100.00
23261;BME280;11799;47.740;-3.390;2023-08-07T08:21:16;102339.44;;;15.47;100.00
23261;BME280;11799;47.740;-3.390;2023-08-07T08:23:42;102344.69;;;15.60;100.00
23261;BME280;11799;47.740;-3.390;2023-08-07T08:26:07;102343.44;;;15.77;100.00
23261;BME280;11799;47.740;-3.390;2023-08-07T08:28:33;102344.56;;;15.85;100.00
23261;BME280;11799;47.740;-3.390;2023-08-07T08:30:58;102329.69;;;15.94;100.00
23261;BME280;11799;47.740;-3.390;2023-08-07T08:33:24;102333.97;;;16.08;100.00
23261;BME280;11799;47.740;-3.390;2023-08-07T08:35:49;102336.28;;;16.12;100.00
23261;BME280;11799;47.740;-3.390;2023-08-07T08:38:15;102336.28;;;16.24;100.00
23261;BME280;11799;47.740;-3.390;2023-08-07T08:40:42;102338.56;;;16.28;100.00
23261;BME280;11799;47.740;-3.390;2023-08-07T08:43:10;102344.53;;;16.32;100.00
23261;BME280;11799;47.740;-3.390;2023-08-07T08:45:39;102340.66;;;16.36;100.00
23261;BME280;11799;47.740;-3.390;2023-08-07T08:48:07;102342.22;;;16.38;100.00
23261;BME280;11799;47.740;-3.390;2023-08-07T08:50:35;102345.75;;;16.39;100.00
23261;BME280;11799;47.740;-3.390;2023-08-07T08:53:02;102341.88;;;16.43;100.00
23261;BME280;11799;47.740;-3.390;2023-08-07T08:55:30;102325.97;;;16.30;100.00
23261;BME280;11799;47.740;-3.390;2023-08-07T08:57:57;102328.28;;;16.35;100.00
23261;BME280;11799;47.740;-3.390;2023-08-07T09:00:26;102348.16;;;16.42;100.00
23261;BME280;11799;47.740;-3.390;2023-08-07T09:02:52;102350.22;;;16.49;100.00
23261;BME280;11799;47.740;-3.390;2023-08-07T09:05:19;102348.06;;;16.55;100.00
23261;BME280;11799;47.740;-3.390;2023-08-07T09:07:47;102348.91;;;16.55;100.00
23261;BME280;11799;47.740;-3.390;2023-08-07T09:10:14;102346.25;;;16.55;100.00
23261;BME280;11799;47.740;-3.390;2023-08-07T09:12:42;102345.75;;;16.61;100.00
23261;BME280;11799;47.740;-3.390;2023-08-07T09:15:10;102333.66;;;16.68;100.00
23261;BME280;11799;47.740;-3.390;2023-08-07T09:17:39;102340.94;;;16.66;100.00
23261;BME280;11799;47.740;-3.390;2023-08-07T09:20:09;102324.44;;;16.72;100.00
23261;BME280;11799;47.740;-3.390;2023-08-07T09:22:40;102338.72;;;16.82;100.00
23261;BME280;11799;47.740;-3.390;2023-08-07T09:25:05;102336.66;;;16.86;100.00
23261;BME280;11799;47.740;-3.390;2023-08-07T09:27:31;102325.75;;;16.89;100.00
23261;BME280;11799;47.740;-3.390;2023-08-07T09:29:58;102325.97;;;16.97;100.00
23261;BME280;11799;47.740;-3.390;2023-08-07T09:32:23;102316.00;;;16.99;100.00
23261;BME280;11799;47.740;-3.390;2023-08-07T09:34:50;102317.00;;;16.98;100.00
23261;BME280;11799;47.740;-3.390;2023-08-07T09:37:17;102321.00;;;16.93;100.00
23261;BME280;11799;47.740;-3.390;2023-08-07T09:39:42;102316.13;;;16.98;100.00
23261;BME280;11799;47.740;-3.390;2023-08-07T09:42:15;102312.16;;;16.92;100.00
23261;BME280;11799;47.740;-3.390;2023-08-07T09:44:41;102304.50;;;16.88;100.00
23261;BME280;11799;47.740;-3.390;2023-08-07T09:47:15;102317.97;;;16.97;100.00
23261;BME280;11799;47.740;-3.390;2023-08-07T09:49:41;102316.00;;;16.99;100.00
23261;BME280;11799;47.740;-3.390;2023-08-07T09:52:08;102310.31;;;17.04;100.00
23261;BME280;11799;47.740;-3.390;2023-08-07T09:54:34;102307.50;;;17.05;100.00
23261;BME280;11799;47.740;-3.390;2023-08-07T09:57:04;102305.06;;;17.13;100.00
23261;BME280;11799;47.740;-3.390;2023-08-07T09:59:31;102290.41;;;17.08;100.00
23261;BME280;11799;47.740;-3.390;2023-08-07T10:01:59;102299.69;;;17.25;100.00
23261;BME280;11799;47.740;-3.390;2023-08-07T10:04:26;102294.47;;;17.23;100.00
23261;BME280;11799;47.740;-3.390;2023-08-07T10:06:52;102298.47;;;17.29;100.00
23261;BME280;11799;47.740;-3.390;2023-08-07T10:09:18;102295.84;;;17.38;100.00
23261;BME280;11799;47.740;-3.390;2023-08-07T10:11:44;102305.31;;;17.42;100.00
23261;BME280;11799;47.740;-3.390;2023-08-07T10:14:12;102310.91;;;17.39;100.00
23261;BME280;11799;47.740;-3.390;2023-08-07T10:16:39;102294.28;;;17.36;100.00
23261;BME280;11799;47.740;-3.390;2023-08-07T10:19:07;102308.34;;;17.38;100.00
23261;BME280;11799;47.740;-3.390;2023-08-07T10:21:35;102302.75;;;17.41;100.00
23261;BME280;11799;47.740;-3.390;2023-08-07T10:24:03;102305.19;;;17.44;100.00
23261;BME280;11799;47.740;-3.390;2023-08-07T10:26:30;102304.06;;;17.46;100.00
23261;BME280;11799;47.740;-3.390;2023-08-07T10:29:03;102298.75;;;17.46;100.00
23261;BME280;11799;47.740;-3.390;2023-08-07T10:31:31;102304.78;;;17.48;100.00
23261;BME280;11799;47.740;-3.390;2023-08-07T10:33:58;102297.97;;;17.56;100.00
23261;BME280;11799;47.740;-3.390;2023-08-07T10:36:32;102291.78;;;17.55;100.00
23261;BME280;11799;47.740;-3.390;2023-08-07T10:39:09;102299.53;;;17.58;100.00
23261;BME280;11799;47.740;-3.390;2023-08-07T10:41:45;102296.34;;;17.64;100.00
23261;BME280;11799;47.740;-3.390;2023-08-07T10:44:44;102284.81;;;17.64;100.00
23261;BME280;11799;47.740;-3.390;2023-08-07T10:47:13;102276.56;;;17.67;100.00
23261;BME280;11799;47.740;-3.390;2023-08-07T10:49:40;102276.06;;;17.73;100.00
23261;BME280;11799;47.740;-3.390;2023-08-07T10:52:11;102276.06;;;17.73;100.00
23261;BME280;11799;47.740;-3.390;2023-08-07T10:54:45;102277.50;;;17.77;100.00
23261;BME280;11799;47.740;-3.390;2023-08-07T10:57:14;102273.84;;;17.78;100.00
23261;BME280;11799;47.740;-3.390;2023-08-07T11:02:25;102277.69;;;17.85;100.00
23261;BME280;11799;47.740;-3.390;2023-08-07T11:04:52;102271.94;;;17.90;100.00
23261;BME280;11799;47.740;-3.390;2023-08-07T11:07:29;102263.78;;;17.91;100.00
23261;BME280;11799;47.740;-3.390;2023-08-07T11:09:55;102274.78;;;17.98;100.00
23261;BME280;11799;47.740;-3.390;2023-08-07T11:12:24;102272.81;;;18.00;100.00
23261;BME280;11799;47.740;-3.390;2023-08-07T11:14:50;102273.53;;;18.02;100.00
23261;BME280;11799;47.740;-3.390;2023-08-07T11:17:18;102267.09;;;18.04;100.00
23261;BME280;11799;47.740;-3.390;2023-08-07T11:19:47;102260.03;;;18.03;100.00
23261;BME280;11799;47.740;-3.390;2023-08-07T11:22:15;102256.84;;;18.09;100.00
23261;BME280;11799;47.740;-3.390;2023-08-07T11:24:41;102249.09;;;18.06;100.00
23261;BME280;11799;47.740;-3.390;2023-08-07T11:27:07;102246.16;;;18.09;100.00
23261;BME280;11799;47.740;-3.390;2023-08-07T11:29:33;102234.22;;;18.13;100.00
23261;BME280;11799;47.740;-3.390;2023-08-07T11:31:59;102241.69;;;18.20;100.00
23261;BME280;11799;47.740;-3.390;2023-08-07T11:34:25;102249.88;;;18.28;100.00
23261;BME280;11799;47.740;-3.390;2023-08-07T11:36:51;102249.03;;;18.27;100.00
23261;BME280;11799;47.740;-3.390;2023-08-07T11:39:16;102240.63;;;18.32;100.00
23261;BME280;11799;47.740;-3.390;2023-08-07T11:41:45;102233.56;;;18.31;100.00
23261;BME280;11799;47.740;-3.390;2023-08-07T11:44:11;102232.88;;;18.29;100.00
23261;BME280;11799;47.740;-3.390;2023-08-07T11:46:36;102234.72;;;18.38;100.00
23261;BME280;11799;47.740;-3.390;2023-08-07T11:49:02;102242.88;;;18.36;100.00
23261;BME280;11799;47.740;-3.390;2023-08-07T11:51:30;102251.94;;;18.45;100.00
23261;BME280;11799;47.740;-3.390;2023-08-07T11:53:55;102241.38;;;18.43;100.00
23261;BME280;11799;47.740;-3.390;2023-08-07T11:56:24;102236.72;;;18.45;100.00
23261;BME280;11799;47.740;-3.390;2023-08-07T11:58:51;102218.84;;;18.46;100.00
23261;BME280;11799;47.740;-3.390;2023-08-07T12:01:19;102224.34;;;18.54;100.00
23261;BME280;11799;47.740;-3.390;2023-08-07T12:06:34;102224.06;;;18.57;100.00
23261;BME280;11799;47.740;-3.390;2023-08-07T12:09:01;102194.25;;;18.62;100.00
23261;BME280;11799;47.740;-3.390;2023-08-07T12:11:29;102196.66;;;18.65;100.00
23261;BME280;11799;47.740;-3.390;2023-08-07T12:13:54;102212.28;;;18.69;100.00
23261;BME280;11799;47.740;-3.390;2023-08-07T12:16:20;102202.28;;;18.71;100.00
23261;BME280;11799;47.740;-3.390;2023-08-07T12:18:51;102185.28;;;18.82;100.00
23261;BME280;11799;47.740;-3.390;2023-08-07T12:21:21;102181.59;;;18.83;100.00
23261;BME280;11799;47.740;-3.390;2023-08-07T12:23:49;102206.69;;;18.92;100.00
23261;BME280;11799;47.740;-3.390;2023-08-07T12:26:16;102212.59;;;18.95;100.00
23261;BME280;11799;47.740;-3.390;2023-08-07T12:28:42;102202.31;;;19.00;100.00
23261;BME280;11799;47.740;-3.390;2023-08-07T12:31:07;102191.47;;;19.02;100.00
23261;BME280;11799;47.740;-3.390;2023-08-07T12:33:33;102210.34;;;19.20;100.00
23261;BME280;11799;47.740;-3.390;2023-08-07T12:36:00;102206.66;;;19.30;100.00
23261;BME280;11799;47.740;-3.390;2023-08-07T12:38:26;102192.13;;;19.42;100.00